sensor_id;sensor_type;location;lat;lon;timestamp;temperature;humidity
56436;DHT22;42335;44.872;20.658;2022-12-08T08:15:11;204.80;2252.80
56436;DHT22;42335;44.872;20.658;2022-12-08T10:01:00;282.40;2278.40
56436;DHT22;42335;44.872;20.658;2022-12-08T10:03:28;282.50;2278.40
56436;DHT22;42335;44.872;20.658;2022-12-08T10:06:06;333.60;2329.60
56436;DHT22;42335;44.872;20.658;2022-12-08T10:11:21;358.80;2329.60
56436;DHT22;42335;44.872;20.658;2022-12-08T10:14:35;358.50;2329.60
56436;DHT22;42335;44.872;20.658;2022-12-08T10:16:41;333.70;2329.60
56436;DHT22;42335;44.872;20.658;2022-12-08T10:19:21;358.40;2329.60
56436;DHT22;42335;44.872;20.658;2022-12-08T10:21:48;358.70;2329.60
56436;DHT22;42335;44.872;20.658;2022-12-08T10:24:39;358.70;2329.60
56436;DHT22;42335;44.872;20.658;2022-12-08T10:27:09;333.70;2329.60
56436;DHT22;42335;44.872;20.658;2022-12-08T10:29:40;333.30;2329.60
56436;DHT22;42335;44.872;20.658;2022-12-08T10:32:22;308.10;2304.00
56436;DHT22;42335;44.872;20.658;2022-12-08T10:37:27;307.50;2304.00
56436;DHT22;42335;44.872;20.658;2022-12-08T10:40:19;307.20;2304.00
56436;DHT22;42335;44.872;20.658;2022-12-08T10:42:47;282.30;2278.40
56436;DHT22;42335;44.872;20.658;2022-12-08T10:45:21;282.20;2278.40
56436;DHT22;42335;44.872;20.658;2022-12-08T10:48:25;282.20;2278.40
56436;DHT22;42335;44.872;20.658;2022-12-08T10:53:28;281.90;2278.40
56436;DHT22;42335;44.872;20.658;2022-12-08T11:03:29;256.60;2252.80
56436;DHT22;42335;44.872;20.658;2022-12-08T11:05:57;256.50;2252.80
56436;DHT22;42335;44.872;20.658;2022-12-08T11:08:24;256.40;2252.80
56436;DHT22;42335;44.872;20.658;2022-12-08T11:10:50;256.20;2252.80
56436;DHT22;42335;44.872;20.658;2022-12-08T11:13:25;256.20;2252.80
56436;DHT22;42335;44.872;20.658;2022-12-08T11:15:53;256.20;2252.80
56436;DHT22;42335;44.872;20.658;2022-12-08T11:18:27;256.10;2252.80
56436;DHT22;42335;44.872;20.658;2022-12-08T11:21:00;256.00;2252.80
56436;DHT22;42335;44.872;20.658;2022-12-08T11:23:28;231.30;2252.80
56436;DHT22;42335;44.872;20.658;2022-12-08T11:26:00;231.30;2252.80
56436;DHT22;42335;44.872;20.658;2022-12-08T11:28:27;231.20;2252.80
56436;DHT22;42335;44.872;20.658;2022-12-08T11:30:58;231.20;2252.80
56436;DHT22;42335;44.872;20.658;2022-12-08T11:33:26;231.30;2252.80
56436;DHT22;42335;44.872;20.658;2022-12-08T11:36:09;231.20;2252.80
56436;DHT22;42335;44.872;20.658;2022-12-08T11:38:40;231.20;2252.80
56436;DHT22;42335;44.872;20.658;2022-12-08T11:41:10;231.20;2252.80
56436;DHT22;42335;44.872;20.658;2022-12-08T11:43:43;231.20;2252.80
56436;DHT22;42335;44.872;20.658;2022-12-08T11:46:19;231.30;2252.80
56436;DHT22;42335;44.872;20.658;2022-12-08T11:49:05;231.30;2252.80
56436;DHT22;42335;44.872;20.658;2022-12-08T11:54:24;256.00;2252.80
56436;DHT22;42335;44.872;20.658;2022-12-08T11:56:56;256.10;2252.80
56436;DHT22;42335;44.872;20.658;2022-12-08T12:02:20;256.00;2252.80
56436;DHT22;42335;44.872;20.658;2022-12-08T12:04:55;256.10;2252.80
56436;DHT22;42335;44.872;20.658;2022-12-08T12:21:11;256.40;2252.80
56436;DHT22;42335;44.872;20.658;2022-12-08T12:23:45;256.40;2252.80
56436;DHT22;42335;44.872;20.658;2022-12-08T12:26:27;256.30;2252.80
56436;DHT22;42335;44.872;20.658;2022-12-08T12:29:00;256.30;2252.80
56436;DHT22;42335;44.872;20.658;2022-12-08T12:31:35;256.30;2252.80
56436;DHT22;42335;44.872;20.658;2022-12-08T12:39:33;256.30;2252.80
56436;DHT22;42335;44.872;20.658;2022-12-08T12:42:00;256.30;2252.80
56436;DHT22;42335;44.872;20.658;2022-12-08T12:57:38;256.30;2252.80
56436;DHT22;42335;44.872;20.658;2022-12-08T13:00:22;256.20;2252.80
56436;DHT22;42335;44.872;20.658;2022-12-08T13:02:49;256.20;2252.80
56436;DHT22;42335;44.872;20.658;2022-12-08T13:15:33;256.30;2252.80
56436;DHT22;42335;44.872;20.658;2022-12-08T13:17:59;256.30;2252.80
56436;DHT22;42335;44.872;20.658;2022-12-08T13:20:25;256.30;2252.80
56436;DHT22;42335;44.872;20.658;2022-12-08T13:26:08;256.30;2252.80
56436;DHT22;42335;44.872;20.658;2022-12-08T13:45:12;256.00;2252.80
56436;DHT22;42335;44.872;20.658;2022-12-08T13:47:55;256.10;2252.80
56436;DHT22;42335;44.872;20.658;2022-12-08T13:52:57;231.30;2252.80
56436;DHT22;42335;44.872;20.658;2022-12-08T13:55:35;256.00;2252.80
56436;DHT22;42335;44.872;20.658;2022-12-08T13:58:02;256.00;2252.80
56436;DHT22;42335;44.872;20.658;2022-12-08T14:00:27;231.30;2252.80
56436;DHT22;42335;44.872;20.658;2022-12-08T14:02:59;256.00;2252.80
56436;DHT22;42335;44.872;20.658;2022-12-08T14:05:27;256.00;2252.80
56436;DHT22;42335;44.872;20.658;2022-12-08T14:08:08;256.00;2252.80
56436;DHT22;42335;44.872;20.658;2022-12-08T14:10:41;256.00;2252.80
56436;DHT22;42335;44.872;20.658;2022-12-08T14:13:10;256.00;2252.80
56436;DHT22;42335;44.872;20.658;2022-12-08T14:15:38;256.00;2252.80
56436;DHT22;42335;44.872;20.658;2022-12-08T14:18:05;256.00;2252.80
56436;DHT22;42335;44.872;20.658;2022-12-08T14:20:32;256.00;2252.80
56436;DHT22;42335;44.872;20.658;2022-12-08T14:22:58;256.00;2252.80
56436;DHT22;42335;44.872;20.658;2022-12-08T14:25:27;231.30;2252.80
56436;DHT22;42335;44.872;20.658;2022-12-08T14:28:01;231.30;2252.80
56436;DHT22;42335;44.872;20.658;2022-12-08T14:30:32;231.30;2252.80
56436;DHT22;42335;44.872;20.658;2022-12-08T14:33:00;231.20;2252.80
56436;DHT22;42335;44.872;20.658;2022-12-08T14:35:28;231.20;2252.80
56436;DHT22;42335;44.872;20.658;2022-12-08T14:38:03;231.20;2252.80
56436;DHT22;42335;44.872;20.658;2022-12-08T14:40:39;231.20;2252.80
56436;DHT22;42335;44.872;20.658;2022-12-08T14:48:24;231.00;2252.80
56436;DHT22;42335;44.872;20.658;2022-12-08T14:56:51;231.10;2252.80
56436;DHT22;42335;44.872;20.658;2022-12-08T15:01:49;231.00;2252.80
56436;DHT22;42335;44.872;20.658;2022-12-08T15:04:23;231.10;2252.80
56436;DHT22;42335;44.872;20.658;2022-12-08T15:09:37;231.00;2252.80
56436;DHT22;42335;44.872;20.658;2022-12-08T15:12:21;231.00;2252.80
56436;DHT22;42335;44.872;20.658;2022-12-08T15:17:40;231.10;2252.80
56436;DHT22;42335;44.872;20.658;2022-12-08T15:22:51;230.90;2252.80
56436;DHT22;42335;44.872;20.658;2022-12-08T15:25:17;230.90;2252.80
56436;DHT22;42335;44.872;20.658;2022-12-08T15:27:43;230.90;2252.80
56436;DHT22;42335;44.872;20.658;2022-12-08T15:30:16;230.90;2252.80
56436;DHT22;42335;44.872;20.658;2022-12-08T15:32:42;230.80;2252.80
56436;DHT22;42335;44.872;20.658;2022-12-08T15:35:13;230.70;2252.80
56436;DHT22;42335;44.872;20.658;2022-12-08T15:37:40;230.70;2252.80
56436;DHT22;42335;44.872;20.658;2022-12-08T15:40:09;230.70;2252.80
56436;DHT22;42335;44.872;20.658;2022-12-08T15:42:35;230.70;2252.80
56436;DHT22;42335;44.872;20.658;2022-12-08T15:45:01;230.60;2252.80
56436;DHT22;42335;44.872;20.658;2022-12-08T15:47:27;230.60;2252.80
56436;DHT22;42335;44.872;20.658;2022-12-08T15:49:54;230.60;2252.80
56436;DHT22;42335;44.872;20.658;2022-12-08T15:52:22;230.60;2252.80
56436;DHT22;42335;44.872;20.658;2022-12-08T15:54:49;230.60;2252.80
56436;DHT22;42335;44.872;20.658;2022-12-08T15:57:24;230.60;2252.80
56436;DHT22;42335;44.872;20.658;2022-12-08T15:59:51;230.60;2252.80
56436;DHT22;42335;44.872;20.658;2022-12-08T16:02:18;230.60;2252.80
56436;DHT22;42335;44.872;20.658;2022-12-08T16:04:44;230.60;2252.80
56436;DHT22;42335;44.872;20.658;2022-12-08T16:07:28;230.50;2252.80
56436;DHT22;42335;44.872;20.658;2022-12-08T16:09:54;230.60;2252.80
56436;DHT22;42335;44.872;20.658;2022-12-08T16:12:23;230.60;2252.80
56436;DHT22;42335;44.872;20.658;2022-12-08T16:15:08;230.60;2252.80
56436;DHT22;42335;44.872;20.658;2022-12-08T16:17:34;230.60;2252.80
56436;DHT22;42335;44.872;20.658;2022-12-08T16:20:01;230.60;2252.80
56436;DHT22;42335;44.872;20.658;2022-12-08T16:22:29;230.50;2252.80
56436;DHT22;42335;44.872;20.658;2022-12-08T16:24:56;230.50;2252.80
56436;DHT22;42335;44.872;20.658;2022-12-08T16:27:25;230.50;2252.80
56436;DHT22;42335;44.872;20.658;2022-12-08T16:29:56;230.50;2252.80
56436;DHT22;42335;44.872;20.658;2022-12-08T16:32:22;230.50;2252.80
56436;DHT22;42335;44.872;20.658;2022-12-08T16:34:48;230.60;2252.80
56436;DHT22;42335;44.872;20.658;2022-12-08T16:37:22;230.60;2252.80
56436;DHT22;42335;44.872;20.658;2022-12-08T16:39:49;230.60;2252.80
56436;DHT22;42335;44.872;20.658;2022-12-08T16:42:17;230.50;2252.80
56436;DHT22;42335;44.872;20.658;2022-12-08T16:45:07;230.60;2252.80
56436;DHT22;42335;44.872;20.658;2022-12-08T16:47:34;230.60;2252.80
56436;DHT22;42335;44.872;20.658;2022-12-08T16:50:04;230.50;2252.80
56436;DHT22;42335;44.872;20.658;2022-12-08T16:52:30;230.40;2252.80
56436;DHT22;42335;44.872;20.658;2022-12-08T16:54:55;230.50;2252.80
56436;DHT22;42335;44.872;20.658;2022-12-08T16:57:21;230.40;2252.80
56436;DHT22;42335;44.872;20.658;2022-12-08T16:59:47;230.40;2252.80
56436;DHT22;42335;44.872;20.658;2022-12-08T17:02:12;230.40;2252.80
56436;DHT22;42335;44.872;20.658;2022-12-08T17:04:38;230.40;2252.80
56436;DHT22;42335;44.872;20.658;2022-12-08T17:07:04;230.40;2252.80
56436;DHT22;42335;44.872;20.658;2022-12-08T17:09:30;230.40;2252.80
56436;DHT22;42335;44.872;20.658;2022-12-08T17:11:56;230.40;2252.80
56436;DHT22;42335;44.872;20.658;2022-12-08T17:14:22;230.40;2252.80
56436;DHT22;42335;44.872;20.658;2022-12-08T17:16:48;230.40;2252.80
56436;DHT22;42335;44.872;20.658;2022-12-08T17:19:14;205.70;2252.80
56436;DHT22;42335;44.872;20.658;2022-12-08T17:21:40;230.40;2252.80
56436;DHT22;42335;44.872;20.658;2022-12-08T17:24:06;230.40;2252.80
56436;DHT22;42335;44.872;20.658;2022-12-08T17:26:32;205.70;2252.80
56436;DHT22;42335;44.872;20.658;2022-12-08T17:28:59;230.40;2252.80
56436;DHT22;42335;44.872;20.658;2022-12-08T17:31:25;230.40;2252.80
56436;DHT22;42335;44.872;20.658;2022-12-08T17:33:51;230.40;2252.80
56436;DHT22;42335;44.872;20.658;2022-12-08T17:36:16;205.70;2252.80
56436;DHT22;42335;44.872;20.658;2022-12-08T17:38:42;230.40;2252.80
56436;DHT22;42335;44.872;20.658;2022-12-08T17:41:09;205.70;2252.80
56436;DHT22;42335;44.872;20.658;2022-12-08T17:43:36;205.70;2252.80
56436;DHT22;42335;44.872;20.658;2022-12-08T17:46:02;205.70;2252.80
56436;DHT22;42335;44.872;20.658;2022-12-08T17:48:28;205.70;2252.80
56436;DHT22;42335;44.872;20.658;2022-12-08T17:50:54;205.70;2252.80
56436;DHT22;42335;44.872;20.658;2022-12-08T17:53:21;230.40;2252.80
56436;DHT22;42335;44.872;20.658;2022-12-08T17:55:54;230.40;2252.80
56436;DHT22;42335;44.872;20.658;2022-12-08T17:58:21;230.40;2252.80
56436;DHT22;42335;44.872;20.658;2022-12-08T18:00:48;230.40;2252.80
56436;DHT22;42335;44.872;20.658;2022-12-08T18:03:14;230.40;2252.80
56436;DHT22;42335;44.872;20.658;2022-12-08T18:05:40;230.40;2252.80
56436;DHT22;42335;44.872;20.658;2022-12-08T18:08:06;230.40;2252.80
56436;DHT22;42335;44.872;20.658;2022-12-08T18:10:31;230.50;2252.80
56436;DHT22;42335;44.872;20.658;2022-12-08T18:12:57;230.50;2252.80
56436;DHT22;42335;44.872;20.658;2022-12-08T18:15:23;230.50;2252.80
56436;DHT22;42335;44.872;20.658;2022-12-08T18:17:49;230.40;2252.80
56436;DHT22;42335;44.872;20.658;2022-12-08T18:20:15;230.50;2252.80
56436;DHT22;42335;44.872;20.658;2022-12-08T18:22:42;230.40;2252.80
56436;DHT22;42335;44.872;20.658;2022-12-08T18:25:09;230.40;2252.80
56436;DHT22;42335;44.872;20.658;2022-12-08T18:27:35;230.50;2252.80
56436;DHT22;42335;44.872;20.658;2022-12-08T18:30:06;230.50;2252.80
56436;DHT22;42335;44.872;20.658;2022-12-08T18:32:32;230.50;2252.80
56436;DHT22;42335;44.872;20.658;2022-12-08T18:34:59;230.50;2252.80
56436;DHT22;42335;44.872;20.658;2022-12-08T18:37:25;230.40;2252.80
56436;DHT22;42335;44.872;20.658;2022-12-08T18:39:50;230.40;2252.80
56436;DHT22;42335;44.872;20.658;2022-12-08T18:42:16;230.50;2252.80
56436;DHT22;42335;44.872;20.658;2022-12-08T18:44:53;230.50;2252.80
56436;DHT22;42335;44.872;20.658;2022-12-08T18:47:34;230.50;2252.80
56436;DHT22;42335;44.872;20.658;2022-12-08T18:50:01;230.60;2252.80
56436;DHT22;42335;44.872;20.658;2022-12-08T18:52:27;230.50;2252.80
56436;DHT22;42335;44.872;20.658;2022-12-08T18:54:53;230.60;2252.80
56436;DHT22;42335;44.872;20.658;2022-12-08T18:57:19;230.50;2252.80
56436;DHT22;42335;44.872;20.658;2022-12-08T18:59:44;230.60;2252.80
56436;DHT22;42335;44.872;20.658;2022-12-08T19:02:11;230.60;2252.80
56436;DHT22;42335;44.872;20.658;2022-12-08T19:04:37;230.60;2252.80
56436;DHT22;42335;44.872;20.658;2022-12-08T19:07:03;230.50;2252.80
56436;DHT22;42335;44.872;20.658;2022-12-08T19:09:29;230.50;2252.80
56436;DHT22;42335;44.872;20.658;2022-12-08T19:11:55;230.60;2252.80
56436;DHT22;42335;44.872;20.658;2022-12-08T19:14:22;230.50;2252.80
56436;DHT22;42335;44.872;20.658;2022-12-08T19:16:48;230.60;2252.80
56436;DHT22;42335;44.872;20.658;2022-12-08T19:19:14;230.50;2252.80
56436;DHT22;42335;44.872;20.658;2022-12-08T19:21:40;230.40;2252.80
56436;DHT22;42335;44.872;20.658;2022-12-08T19:24:07;230.40;2252.80
56436;DHT22;42335;44.872;20.658;2022-12-08T19:26:33;230.50;2252.80
56436;DHT22;42335;44.872;20.658;2022-12-08T19:28:59;230.80;2252.80
56436;DHT22;42335;44.872;20.658;2022-12-08T19:31:24;230.40;2252.80
56436;DHT22;42335;44.872;20.658;2022-12-08T19:33:50;230.50;2252.80
56436;DHT22;42335;44.872;20.658;2022-12-08T19:36:18;230.50;2252.80
56436;DHT22;42335;44.872;20.658;2022-12-08T19:38:45;230.50;2252.80
56436;DHT22;42335;44.872;20.658;2022-12-08T19:41:30;230.50;2252.80
56436;DHT22;42335;44.872;20.658;2022-12-08T19:44:22;230.40;2252.80
56436;DHT22;42335;44.872;20.658;2022-12-08T19:47:07;230.40;2252.80
56436;DHT22;42335;44.872;20.658;2022-12-08T19:49:33;205.70;2252.80
56436;DHT22;42335;44.872;20.658;2022-12-08T19:51:59;205.60;2252.80
56436;DHT22;42335;44.872;20.658;2022-12-08T19:54:25;205.60;2252.80
56436;DHT22;42335;44.872;20.658;2022-12-08T19:56:51;205.60;2252.80
56436;DHT22;42335;44.872;20.658;2022-12-08T19:59:16;205.50;2252.80
56436;DHT22;42335;44.872;20.658;2022-12-08T20:01:43;205.40;2252.80
56436;DHT22;42335;44.872;20.658;2022-12-08T20:04:16;205.40;2252.80
56436;DHT22;42335;44.872;20.658;2022-12-08T20:06:42;205.30;2252.80
56436;DHT22;42335;44.872;20.658;2022-12-08T20:09:09;205.30;2252.80
56436;DHT22;42335;44.872;20.658;2022-12-08T20:11:35;205.30;2252.80
56436;DHT22;42335;44.872;20.658;2022-12-08T20:14:01;205.30;2252.80
56436;DHT22;42335;44.872;20.658;2022-12-08T20:16:27;205.30;2252.80
56436;DHT22;42335;44.872;20.658;2022-12-08T20:18:52;205.30;2252.80
56436;DHT22;42335;44.872;20.658;2022-12-08T20:21:18;205.40;2252.80
56436;DHT22;42335;44.872;20.658;2022-12-08T20:23:44;205.30;2252.80
56436;DHT22;42335;44.872;20.658;2022-12-08T20:26:13;205.40;2252.80
56436;DHT22;42335;44.872;20.658;2022-12-08T20:28:38;205.40;2252.80
56436;DHT22;42335;44.872;20.658;2022-12-08T20:31:04;205.40;2252.80
56436;DHT22;42335;44.872;20.658;2022-12-08T20:33:30;205.30;2252.80
56436;DHT22;42335;44.872;20.658;2022-12-08T20:35:58;205.30;2252.80
56436;DHT22;42335;44.872;20.658;2022-12-08T20:38:25;205.20;2252.80
56436;DHT22;42335;44.872;20.658;2022-12-08T20:40:50;205.20;2252.80
56436;DHT22;42335;44.872;20.658;2022-12-08T20:43:16;205.20;2252.80
56436;DHT22;42335;44.872;20.658;2022-12-08T20:45:42;205.20;2252.80
56436;DHT22;42335;44.872;20.658;2022-12-08T20:48:07;205.10;2252.80
56436;DHT22;42335;44.872;20.658;2022-12-08T20:50:33;205.10;2252.80
56436;DHT22;42335;44.872;20.658;2022-12-08T20:52:59;205.10;2252.80
56436;DHT22;42335;44.872;20.658;2022-12-08T20:55:24;205.00;2252.80
56436;DHT22;42335;44.872;20.658;2022-12-08T20:57:50;205.00;2252.80
56436;DHT22;42335;44.872;20.658;2022-12-08T21:00:20;205.00;2252.80
56436;DHT22;42335;44.872;20.658;2022-12-08T21:02:48;205.00;2252.80
56436;DHT22;42335;44.872;20.658;2022-12-08T21:05:14;205.00;2252.80
56436;DHT22;42335;44.872;20.658;2022-12-08T21:07:40;205.00;2252.80
56436;DHT22;42335;44.872;20.658;2022-12-08T21:19:50;205.30;2252.80
56436;DHT22;42335;44.872;20.658;2022-12-08T21:22:16;205.30;2252.80
56436;DHT22;42335;44.872;20.658;2022-12-08T21:24:42;205.30;2252.80
56436;DHT22;42335;44.872;20.658;2022-12-08T21:27:08;205.30;2252.80
56436;DHT22;42335;44.872;20.658;2022-12-08T21:29:33;205.10;2252.80
56436;DHT22;42335;44.872;20.658;2022-12-08T21:31:59;205.00;2252.80
56436;DHT22;42335;44.872;20.658;2022-12-08T21:34:26;205.20;2252.80
56436;DHT22;42335;44.872;20.658;2022-12-08T21:36:57;205.20;2252.80
56436;DHT22;42335;44.872;20.658;2022-12-08T21:39:23;205.20;2252.80
56436;DHT22;42335;44.872;20.658;2022-12-08T21:41:49;205.20;2252.80
56436;DHT22;42335;44.872;20.658;2022-12-08T21:44:33;205.30;2252.80
56436;DHT22;42335;44.872;20.658;2022-12-08T21:47:03;205.10;2252.80
56436;DHT22;42335;44.872;20.658;2022-12-08T21:49:28;205.20;2252.80
56436;DHT22;42335;44.872;20.658;2022-12-08T21:51:54;205.10;2252.80
56436;DHT22;42335;44.872;20.658;2022-12-08T21:54:20;205.10;2252.80
56436;DHT22;42335;44.872;20.658;2022-12-08T21:56:47;205.20;2252.80
56436;DHT22;42335;44.872;20.658;2022-12-08T21:59:13;205.20;2252.80
56436;DHT22;42335;44.872;20.658;2022-12-08T22:01:39;205.20;2252.80
56436;DHT22;42335;44.872;20.658;2022-12-08T22:04:08;205.10;2252.80
56436;DHT22;42335;44.872;20.658;2022-12-08T22:06:33;205.10;2252.80
56436;DHT22;42335;44.872;20.658;2022-12-08T22:08:59;205.10;2252.80
56436;DHT22;42335;44.872;20.658;2022-12-08T22:11:25;205.10;2252.80
56436;DHT22;42335;44.872;20.658;2022-12-08T22:13:51;205.10;2252.80
56436;DHT22;42335;44.872;20.658;2022-12-08T22:16:16;205.10;2252.80
56436;DHT22;42335;44.872;20.658;2022-12-08T22:18:42;205.10;2252.80
56436;DHT22;42335;44.872;20.658;2022-12-08T22:23:34;205.10;2252.80
56436;DHT22;42335;44.872;20.658;2022-12-08T22:26:01;205.10;2252.80
56436;DHT22;42335;44.872;20.658;2022-12-08T22:28:30;205.10;2252.80
56436;DHT22;42335;44.872;20.658;2022-12-08T22:30:56;205.00;2252.80
56436;DHT22;42335;44.872;20.658;2022-12-08T22:33:22;205.00;2252.80
56436;DHT22;42335;44.872;20.658;2022-12-08T22:35:55;205.10;2252.80
56436;DHT22;42335;44.872;20.658;2022-12-08T22:38:21;205.00;2252.80
56436;DHT22;42335;44.872;20.658;2022-12-08T22:40:47;204.90;2252.80
56436;DHT22;42335;44.872;20.658;2022-12-08T22:43:12;205.00;2252.80
56436;DHT22;42335;44.872;20.658;2022-12-08T22:45:38;205.00;2252.80
56436;DHT22;42335;44.872;20.658;2022-12-08T22:48:04;205.00;2252.80
56436;DHT22;42335;44.872;20.658;2022-12-08T22:50:29;205.00;2252.80
56436;DHT22;42335;44.872;20.658;2022-12-08T22:52:55;205.00;2252.80
56436;DHT22;42335;44.872;20.658;2022-12-08T22:55:21;204.90;2252.80
56436;DHT22;42335;44.872;20.658;2022-12-08T22:57:46;205.00;2252.80
56436;DHT22;42335;44.872;20.658;2022-12-08T23:00:12;205.10;2252.80
56436;DHT22;42335;44.872;20.658;2022-12-08T23:02:38;204.90;2252.80
56436;DHT22;42335;44.872;20.658;2022-12-08T23:05:04;204.90;2252.80
56436;DHT22;42335;44.872;20.658;2022-12-08T23:07:30;205.00;2252.80
56436;DHT22;42335;44.872;20.658;2022-12-08T23:09:55;204.90;2252.80
56436;DHT22;42335;44.872;20.658;2022-12-08T23:12:21;205.00;2252.80
56436;DHT22;42335;44.872;20.658;2022-12-08T23:14:47;204.90;2252.80
56436;DHT22;42335;44.872;20.658;2022-12-08T23:17:13;205.20;2252.80
56436;DHT22;42335;44.872;20.658;2022-12-08T23:19:38;205.00;2252.80
56436;DHT22;42335;44.872;20.658;2022-12-08T23:22:04;205.10;2252.80
56436;DHT22;42335;44.872;20.658;2022-12-08T23:24:30;205.00;2252.80
56436;DHT22;42335;44.872;20.658;2022-12-08T23:26:55;204.90;2252.80
56436;DHT22;42335;44.872;20.658;2022-12-08T23:29:21;205.00;2252.80
56436;DHT22;42335;44.872;20.658;2022-12-08T23:31:47;205.00;2252.80
56436;DHT22;42335;44.872;20.658;2022-12-08T23:34:13;204.90;2252.80
56436;DHT22;42335;44.872;20.658;2022-12-08T23:36:38;205.00;2252.80
56436;DHT22;42335;44.872;20.658;2022-12-08T23:39:04;204.90;2252.80
56436;DHT22;42335;44.872;20.658;2022-12-08T23:41:30;205.00;2252.80
56436;DHT22;42335;44.872;20.658;2022-12-08T23:43:57;205.00;2252.80
56436;DHT22;42335;44.872;20.658;2022-12-08T23:46:22;205.00;2252.80
56436;DHT22;42335;44.872;20.658;2022-12-08T23:48:49;205.00;2252.80
56436;DHT22;42335;44.872;20.658;2022-12-08T23:51:16;205.00;2252.80
56436;DHT22;42335;44.872;20.658;2022-12-08T23:53:42;205.00;2252.80
56436;DHT22;42335;44.872;20.658;2022-12-08T23:56:10;205.00;2252.80
56436;DHT22;42335;44.872;20.658;2022-12-08T23:58:36;204.90;2252.80
